sensor_id;sensor_type;location;lat;lon;timestamp;pressure;altitude;pressure_sealevel;temperature;humidity
70968;BME280;58629;48.808;8.820;2023-07-24T00:00:15;96472.44;;;16.50;100.00
70968;BME280;58629;48.808;8.820;2023-07-24T00:02:40;96467.81;;;16.51;100.00
70968;BME280;58629;48.808;8.820;2023-07-24T00:05:05;96478.22;;;16.48;100.00
70968;BME280;58629;48.808;8.820;2023-07-24T00:07:31;96478.97;;;16.49;100.00
70968;BME280;58629;48.808;8.820;2023-07-24T00:09:56;96462.47;;;16.51;100.00
70968;BME280;58629;48.808;8.820;2023-07-24T00:12:22;96456.56;;;16.46;100.00
70968;BME280;58629;48.808;8.820;2023-07-24T00:14:48;96458.03;;;16.47;100.00
70968;BME280;58629;48.808;8.820;2023-07-24T00:17:13;96465.78;;;16.45;100.00
70968;BME280;58629;48.808;8.820;2023-07-24T00:19:38;96464.56;;;16.46;100.00
70968;BME280;58629;48.808;8.820;2023-07-24T00:22:04;96459.97;;;16.47;100.00
70968;BME280;58629;48.808;8.820;2023-07-24T00:24:31;96461.44;;;16.48;100.00
70968;BME280;58629;48.808;8.820;2023-07-24T00:26:56;96453.28;;;16.52;100.00
70968;BME280;58629;48.808;8.820;2023-07-24T00:29:21;96448.06;;;16.48;100.00
70968;BME280;58629;48.808;8.820;2023-07-24T00:31:47;96441.56;;;16.49;100.00
70968;BME280;58629;48.808;8.820;2023-07-24T00:34:12;96449.13;;;16.51;100.00
70968;BME280;58629;48.808;8.820;2023-07-24T00:36:37;96444.50;;;16.51;100.00
70968;BME280;58629;48.808;8.820;2023-07-24T00:39:03;96448.06;;;16.48;100.00
70968;BME280;58629;48.808;8.820;2023-07-24T00:41:28;96444.13;;;16.43;100.00
70968;BME280;58629;48.808;8.820;2023-07-24T00:43:54;96439.50;;;16.44;100.00
70968;BME280;58629;48.808;8.820;2023-07-24T00:46:19;96430.00;;;16.43;100.00
70968;BME280;58629;48.808;8.820;2023-07-24T00:48:45;96440.63;;;16.37;100.00
70968;BME280;58629;48.808;8.820;2023-07-24T00:51:10;96430.69;;;16.38;100.00
70968;BME280;58629;48.808;8.820;2023-07-24T00:53:35;96428.44;;;16.36;100.00
70968;BME280;58629;48.808;8.820;2023-07-24T00:56:01;96423.28;;;16.33;100.00
70968;BME280;58629;48.808;8.820;2023-07-24T00:58:27;96418.41;;;16.31;100.00
70968;BME280;58629;48.808;8.820;2023-07-24T01:00:53;96424.38;;;16.26;100.00
70968;BME280;58629;48.808;8.820;2023-07-24T01:03:18;96410.75;;;16.10;100.00
70968;BME280;58629;48.808;8.820;2023-07-24T01:05:43;96410.38;;;16.02;100.00
70968;BME280;58629;48.808;8.820;2023-07-24T01:08:09;96405.59;;;16.06;100.00
70968;BME280;58629;48.808;8.820;2023-07-24T01:10:34;96409.63;;;16.02;100.00
70968;BME280;58629;48.808;8.820;2023-07-24T01:13:09;96401.16;;;16.03;100.00
70968;BME280;58629;48.808;8.820;2023-07-24T01:15:42;96397.38;;;15.95;100.00
70968;BME280;58629;48.808;8.820;2023-07-24T01:18:11;96392.97;;;15.92;100.00
70968;BME280;58629;48.808;8.820;2023-07-24T01:20:44;96392.00;;;15.81;100.00
70968;BME280;58629;48.808;8.820;2023-07-24T01:25:53;96396.81;;;15.77;100.00
70968;BME280;58629;48.808;8.820;2023-07-24T01:28:18;96381.97;;;15.76;100.00
70968;BME280;58629;48.808;8.820;2023-07-24T01:30:44;96389.50;;;15.77;100.00
70968;BME280;58629;48.808;8.820;2023-07-24T01:33:09;96384.44;;;15.79;100.00
70968;BME280;58629;48.808;8.820;2023-07-24T01:35:35;96379.75;;;15.74;100.00
70968;BME280;58629;48.808;8.820;2023-07-24T01:38:02;96379.47;;;15.72;100.00
70968;BME280;58629;48.808;8.820;2023-07-24T01:40:29;96379.75;;;15.74;100.00
70968;BME280;58629;48.808;8.820;2023-07-24T01:42:54;96373.00;;;15.64;100.00
70968;BME280;58629;48.808;8.820;2023-07-24T01:45:20;96377.16;;;15.65;100.00
70968;BME280;58629;48.808;8.820;2023-07-24T01:47:45;96378.44;;;15.70;100.00
70968;BME280;58629;48.808;8.820;2023-07-24T01:50:10;96374.59;;;15.71;100.00
70968;BME280;58629;48.808;8.820;2023-07-24T01:52:36;96374.13;;;15.72;100.00
70968;BME280;58629;48.808;8.820;2023-07-24T01:55:01;96376.81;;;15.72;100.00
70968;BME280;58629;48.808;8.820;2023-07-24T01:57:26;96372.66;;;15.71;100.00
70968;BME280;58629;48.808;8.820;2023-07-24T01:59:52;96380.66;;;15.71;100.00
70968;BME280;58629;48.808;8.820;2023-07-24T02:02:17;96377.16;;;15.65;100.00
70968;BME280;58629;48.808;8.820;2023-07-24T02:04:42;96381.31;;;15.66;100.00
70968;BME280;58629;48.808;8.820;2023-07-24T02:07:08;96384.88;;;15.63;100.00
70968;BME280;58629;48.808;8.820;2023-07-24T02:09:34;96386.81;;;15.63;100.00
70968;BME280;58629;48.808;8.820;2023-07-24T02:11:59;96370.81;;;15.63;100.00
70968;BME280;58629;48.808;8.820;2023-07-24T02:14:25;96369.78;;;15.60;100.00
70968;BME280;58629;48.808;8.820;2023-07-24T02:16:51;96370.06;;;15.62;100.00
70968;BME280;58629;48.808;8.820;2023-07-24T02:19:17;96370.06;;;15.62;100.00
70968;BME280;58629;48.808;8.820;2023-07-24T02:21:42;96364.25;;;15.63;100.00
70968;BME280;58629;48.808;8.820;2023-07-24T02:24:07;96363.97;;;15.61;100.00
70968;BME280;58629;48.808;8.820;2023-07-24T02:26:32;96361.03;;;15.59;100.00
70968;BME280;58629;48.808;8.820;2023-07-24T02:28:58;96359.72;;;15.55;100.00
70968;BME280;58629;48.808;8.820;2023-07-24T02:31:23;96359.28;;;15.56;100.00
70968;BME280;58629;48.808;8.820;2023-07-24T02:33:48;96353.22;;;15.56;100.00
70968;BME280;58629;48.808;8.820;2023-07-24T02:36:14;96348.63;;;15.56;100.00
70968;BME280;58629;48.808;8.820;2023-07-24T02:38:40;96348.78;;;15.53;100.00
70968;BME280;58629;48.808;8.820;2023-07-24T02:41:05;96348.50;;;15.51;100.00
70968;BME280;58629;48.808;8.820;2023-07-24T02:43:30;96340.34;;;15.54;100.00
70968;BME280;58629;48.808;8.820;2023-07-24T02:46:00;96348.50;;;15.51;100.00
70968;BME280;58629;48.808;8.820;2023-07-24T02:48:26;96359.34;;;15.47;100.00
70968;BME280;58629;48.808;8.820;2023-07-24T02:50:51;96357.47;;;15.39;100.00
70968;BME280;58629;48.808;8.820;2023-07-24T02:53:17;96343.66;;;15.40;100.00
70968;BME280;58629;48.808;8.820;2023-07-24T02:55:43;96325.75;;;15.41;100.00
70968;BME280;58629;48.808;8.820;2023-07-24T02:58:08;96305.56;;;15.40;100.00
70968;BME280;58629;48.808;8.820;2023-07-24T03:00:34;96314.66;;;15.33;100.00
70968;BME280;58629;48.808;8.820;2023-07-24T03:02:59;96317.69;;;15.26;100.00
70968;BME280;58629;48.808;8.820;2023-07-24T03:05:24;96322.28;;;15.02;100.00
70968;BME280;58629;48.808;8.820;2023-07-24T03:07:50;96315.06;;;14.94;100.00
70968;BME280;58629;48.808;8.820;2023-07-24T03:10:15;96319.81;;;14.99;100.00
70968;BME280;58629;48.808;8.820;2023-07-24T03:12:40;96320.25;;;14.97;100.00
70968;BME280;58629;48.808;8.820;2023-07-24T03:15:06;96330.16;;;14.73;100.00
70968;BME280;58629;48.808;8.820;2023-07-24T03:17:32;96329.31;;;14.67;100.00
70968;BME280;58629;48.808;8.820;2023-07-24T03:19:57;96321.13;;;14.70;100.00
70968;BME280;58629;48.808;8.820;2023-07-24T03:22:23;96332.94;;;14.78;100.00
70968;BME280;58629;48.808;8.820;2023-07-24T03:24:48;96337.34;;;14.82;100.00
70968;BME280;58629;48.808;8.820;2023-07-24T03:27:13;96338.66;;;14.86;100.00
70968;BME280;58629;48.808;8.820;2023-07-24T03:29:39;96324.75;;;14.91;100.00
70968;BME280;58629;48.808;8.820;2023-07-24T03:32:06;96315.06;;;14.94;100.00
70968;BME280;58629;48.808;8.820;2023-07-24T03:34:32;96316.38;;;14.98;100.00
70968;BME280;58629;48.808;8.820;2023-07-24T03:36:57;96311.97;;;14.95;100.00
70968;BME280;58629;48.808;8.820;2023-07-24T03:39:22;96318.78;;;14.96;100.00
70968;BME280;58629;48.808;8.820;2023-07-24T03:41:48;96321.44;;;14.96;100.00
70968;BME280;58629;48.808;8.820;2023-07-24T03:44:13;96327.13;;;14.89;100.00
70968;BME280;58629;48.808;8.820;2023-07-24T03:46:38;96324.59;;;14.86;100.00
70968;BME280;58629;48.808;8.820;2023-07-24T03:49:03;96328.66;;;14.81;100.00
70968;BME280;58629;48.808;8.820;2023-07-24T03:51:29;96336.81;;;14.77;100.00
70968;BME280;58629;48.808;8.820;2023-07-24T03:53:54;96336.63;;;14.81;100.00
70968;BME280;58629;48.808;8.820;2023-07-24T03:56:19;96325.91;;;14.90;100.00
70968;BME280;58629;48.808;8.820;2023-07-24T03:58:45;96325.59;;;14.97;100.00
70968;BME280;58629;48.808;8.820;2023-07-24T04:01:10;96333.97;;;15.05;100.00
70968;BME280;58629;48.808;8.820;2023-07-24T04:03:36;96336.75;;;15.10;100.00
70968;BME280;58629;48.808;8.820;2023-07-24T04:06:01;96335.22;;;15.18;100.00
70968;BME280;58629;48.808;8.820;2023-07-24T04:08:26;96334.16;;;15.25;100.00
70968;BME280;58629;48.808;8.820;2023-07-24T04:10:52;96315.13;;;15.32;100.00
70968;BME280;58629;48.808;8.820;2023-07-24T04:13:17;96312.13;;;15.39;100.00
70968;BME280;58629;48.808;8.820;2023-07-24T04:15:43;96297.88;;;15.42;100.00
70968;BME280;58629;48.808;8.820;2023-07-24T04:18:09;96303.50;;;15.44;100.00
70968;BME280;58629;48.808;8.820;2023-07-24T04:20:35;96299.97;;;15.38;100.00
70968;BME280;58629;48.808;8.820;2023-07-24T04:23:00;96300.41;;;15.36;100.00
70968;BME280;58629;48.808;8.820;2023-07-24T04:25:25;96301.44;;;15.39;100.00
70968;BME280;58629;48.808;8.820;2023-07-24T04:27:50;96302.56;;;15.47;100.00
70968;BME280;58629;48.808;8.820;2023-07-24T04:30:16;96296.63;;;15.52;100.00
70968;BME280;58629;48.808;8.820;2023-07-24T04:32:41;96286.97;;;15.54;100.00
70968;BME280;58629;48.808;8.820;2023-07-24T04:35:07;96279.50;;;15.58;100.00
70968;BME280;58629;48.808;8.820;2023-07-24T04:37:33;96286.59;;;15.61;100.00
70968;BME280;58629;48.808;8.820;2023-07-24T04:39:58;96276.19;;;15.63;100.00
70968;BME280;58629;48.808;8.820;2023-07-24T04:42:23;96268.66;;;15.62;100.00
70968;BME280;58629;48.808;8.820;2023-07-24T04:44:48;96264.50;;;15.61;100.00
70968;BME280;58629;48.808;8.820;2023-07-24T04:47:15;96269.13;;;15.60;100.00
70968;BME280;58629;48.808;8.820;2023-07-24T04:49:40;96260.47;;;15.66;100.00
70968;BME280;58629;48.808;8.820;2023-07-24T04:52:06;96249.31;;;15.67;100.00
70968;BME280;58629;48.808;8.820;2023-07-24T04:54:31;96245.47;;;15.68;100.00
70968;BME280;58629;48.808;8.820;2023-07-24T04:56:56;96249.78;;;15.66;100.00
70968;BME280;58629;48.808;8.820;2023-07-24T04:59:21;96244.72;;;15.68;100.00
70968;BME280;58629;48.808;8.820;2023-07-24T05:01:47;96253.47;;;15.68;100.00
70968;BME280;58629;48.808;8.820;2023-07-24T05:04:12;96255.03;;;15.75;100.00
70968;BME280;58629;48.808;8.820;2023-07-24T05:06:37;96265.72;;;15.75;100.00
70968;BME280;58629;48.808;8.820;2023-07-24T05:09:03;96260.19;;;15.78;100.00
70968;BME280;58629;48.808;8.820;2023-07-24T05:11:29;96265.72;;;15.75;100.00
70968;BME280;58629;48.808;8.820;2023-07-24T05:13:54;96266.16;;;15.73;100.00
70968;BME280;58629;48.808;8.820;2023-07-24T05:16:19;96278.50;;;15.71;100.00
70968;BME280;58629;48.808;8.820;2023-07-24T05:18:44;96276.13;;;15.73;100.00
70968;BME280;58629;48.808;8.820;2023-07-24T05:21:10;96277.84;;;15.76;100.00
70968;BME280;58629;48.808;8.820;2023-07-24T05:23:36;96276.22;;;15.78;100.00
70968;BME280;58629;48.808;8.820;2023-07-24T05:26:02;96273.63;;;15.84;100.00
70968;BME280;58629;48.808;8.820;2023-07-24T05:28:29;96267.34;;;15.87;100.00
70968;BME280;58629;48.808;8.820;2023-07-24T05:30:54;96276.84;;;15.88;100.00
70968;BME280;58629;48.808;8.820;2023-07-24T05:33:21;96279.59;;;15.93;100.00
70968;BME280;58629;48.808;8.820;2023-07-24T05:35:48;96282.53;;;15.95;100.00
70968;BME280;58629;48.808;8.820;2023-07-24T05:38:13;96295.91;;;15.95;100.00
70968;BME280;58629;48.808;8.820;2023-07-24T05:40:39;96294.25;;;15.98;100.00
70968;BME280;58629;48.808;8.820;2023-07-24T05:43:04;96295.00;;;15.98;100.00
70968;BME280;58629;48.808;8.820;2023-07-24T05:45:29;96309.81;;;15.99;100.00
70968;BME280;58629;48.808;8.820;2023-07-24T05:47:55;96307.41;;;16.01;100.00
70968;BME280;58629;48.808;8.820;2023-07-24T05:50:20;96315.69;;;16.03;100.00
70968;BME280;58629;48.808;8.820;2023-07-24T05:52:45;96308.22;;;16.07;100.00
70968;BME280;58629;48.808;8.820;2023-07-24T05:55:11;96311.53;;;16.17;100.00
70968;BME280;58629;48.808;8.820;2023-07-24T05:57:36;96299.94;;;16.20;100.00
70968;BME280;58629;48.808;8.820;2023-07-24T06:00:05;96296.41;;;16.28;100.00
70968;BME280;58629;48.808;8.820;2023-07-24T06:02:31;96283.44;;;16.36;100.00
70968;BME280;58629;48.808;8.820;2023-07-24T06:04:56;96288.66;;;16.45;100.00
70968;BME280;58629;48.808;8.820;2023-07-24T06:07:21;96294.09;;;16.51;100.00
70968;BME280;58629;48.808;8.820;2023-07-24T06:09:47;96294.66;;;16.55;100.00
70968;BME280;58629;48.808;8.820;2023-07-24T06:12:13;96296.41;;;16.58;99.88
70968;BME280;58629;48.808;8.820;2023-07-24T06:14:39;96295.72;;;16.63;100.00
70968;BME280;58629;48.808;8.820;2023-07-24T06:17:04;96298.75;;;16.70;100.00
70968;BME280;58629;48.808;8.820;2023-07-24T06:19:29;96297.97;;;16.84;100.00
70968;BME280;58629;48.808;8.820;2023-07-24T06:21:55;96298.84;;;16.96;98.40
70968;BME280;58629;48.808;8.820;2023-07-24T06:24:20;96291.94;;;17.09;98.64
70968;BME280;58629;48.808;8.820;2023-07-24T06:26:46;96289.38;;;17.15;98.49
70968;BME280;58629;48.808;8.820;2023-07-24T06:29:11;96281.41;;;17.20;97.97
70968;BME280;58629;48.808;8.820;2023-07-24T06:31:36;96284.19;;;17.31;96.50
70968;BME280;58629;48.808;8.820;2023-07-24T06:34:02;96280.69;;;17.46;97.43
70968;BME280;58629;48.808;8.820;2023-07-24T06:36:27;96280.69;;;17.46;98.30
70968;BME280;58629;48.808;8.820;2023-07-24T06:38:53;96275.28;;;17.60;98.81
70968;BME280;58629;48.808;8.820;2023-07-24T06:41:18;96268.81;;;17.72;98.48
70968;BME280;58629;48.808;8.820;2023-07-24T06:43:45;96262.53;;;17.81;99.39
70968;BME280;58629;48.808;8.820;2023-07-24T06:46:11;96250.69;;;17.87;97.88
70968;BME280;58629;48.808;8.820;2023-07-24T06:48:36;96241.00;;;17.95;98.50
70968;BME280;58629;48.808;8.820;2023-07-24T06:51:01;96247.13;;;18.01;95.87
70968;BME280;58629;48.808;8.820;2023-07-24T06:53:26;96246.50;;;18.12;95.11
70968;BME280;58629;48.808;8.820;2023-07-24T06:55:52;96248.50;;;18.23;97.01
70968;BME280;58629;48.808;8.820;2023-07-24T06:58:17;96239.53;;;18.26;99.37
70968;BME280;58629;48.808;8.820;2023-07-24T07:00:42;96242.69;;;18.24;99.08
70968;BME280;58629;48.808;8.820;2023-07-24T07:03:08;96245.56;;;18.20;96.53
70968;BME280;58629;48.808;8.820;2023-07-24T07:05:33;96242.88;;;18.20;96.13
70968;BME280;58629;48.808;8.820;2023-07-24T07:07:58;96253.22;;;18.33;96.99
70968;BME280;58629;48.808;8.820;2023-07-24T07:10:23;96258.13;;;18.40;97.15
70968;BME280;58629;48.808;8.820;2023-07-24T07:12:49;96264.50;;;18.43;98.59
70968;BME280;58629;48.808;8.820;2023-07-24T07:15:14;96265.69;;;18.42;99.08
70968;BME280;58629;48.808;8.820;2023-07-24T07:17:40;96271.63;;;18.51;98.34
70968;BME280;58629;48.808;8.820;2023-07-24T07:20:06;96265.63;;;18.62;96.63
70968;BME280;58629;48.808;8.820;2023-07-24T07:22:31;96258.81;;;18.72;98.35
70968;BME280;58629;48.808;8.820;2023-07-24T07:24:56;96264.66;;;18.70;100.00
70968;BME280;58629;48.808;8.820;2023-07-24T07:27:22;96265.63;;;18.67;100.00
70968;BME280;58629;48.808;8.820;2023-07-24T07:29:47;96272.94;;;18.67;100.00
70968;BME280;58629;48.808;8.820;2023-07-24T07:32:12;96270.78;;;18.71;99.61
70968;BME280;58629;48.808;8.820;2023-07-24T07:34:38;96287.59;;;18.71;98.56
70968;BME280;58629;48.808;8.820;2023-07-24T07:37:04;96300.75;;;18.69;98.65
70968;BME280;58629;48.808;8.820;2023-07-24T07:39:30;96302.44;;;18.67;99.86
70968;BME280;58629;48.808;8.820;2023-07-24T07:41:55;96318.75;;;18.63;100.00
70968;BME280;58629;48.808;8.820;2023-07-24T07:44:21;96330.69;;;18.62;100.00
70968;BME280;58629;48.808;8.820;2023-07-24T07:46:46;96344.81;;;18.57;99.23
70968;BME280;58629;48.808;8.820;2023-07-24T07:49:11;96360.19;;;18.62;99.96
70968;BME280;58629;48.808;8.820;2023-07-24T07:51:37;96368.22;;;18.62;100.00
70968;BME280;58629;48.808;8.820;2023-07-24T07:54:02;96375.56;;;18.62;100.00
70968;BME280;58629;48.808;8.820;2023-07-24T07:56:28;96378.88;;;18.51;100.00
70968;BME280;58629;48.808;8.820;2023-07-24T07:58:53;96385.44;;;18.50;100.00
70968;BME280;58629;48.808;8.820;2023-07-24T08:01:19;96374.72;;;18.50;100.00
70968;BME280;58629;48.808;8.820;2023-07-24T08:03:44;96362.13;;;18.36;100.00
70968;BME280;58629;48.808;8.820;2023-07-24T08:06:10;96357.53;;;18.37;100.00
70968;BME280;58629;48.808;8.820;2023-07-24T08:08:35;96343.38;;;18.36;97.48
70968;BME280;58629;48.808;8.820;2023-07-24T08:11:07;96334.66;;;18.41;95.89
70968;BME280;58629;48.808;8.820;2023-07-24T08:13:33;96325.03;;;18.55;94.20
70968;BME280;58629;48.808;8.820;2023-07-24T08:15:58;96322.00;;;18.42;95.17
70968;BME280;58629;48.808;8.820;2023-07-24T08:18:29;96316.44;;;18.45;95.88
70968;BME280;58629;48.808;8.820;2023-07-24T08:20:54;96298.94;;;18.50;95.99
70968;BME280;58629;48.808;8.820;2023-07-24T08:23:19;96295.06;;;18.56;96.35
70968;BME280;58629;48.808;8.820;2023-07-24T08:25:54;96277.03;;;18.57;96.73
70968;BME280;58629;48.808;8.820;2023-07-24T08:28:20;96264.16;;;18.66;95.84
70968;BME280;58629;48.808;8.820;2023-07-24T08:30:46;96236.19;;;18.78;95.43
70968;BME280;58629;48.808;8.820;2023-07-24T08:33:12;96221.34;;;18.88;94.65
70968;BME280;58629;48.808;8.820;2023-07-24T08:35:38;96223.09;;;18.97;95.56
70968;BME280;58629;48.808;8.820;2023-07-24T08:38:03;96211.13;;;19.03;94.56
70968;BME280;58629;48.808;8.820;2023-07-24T08:40:28;96195.06;;;19.09;94.88
70968;BME280;58629;48.808;8.820;2023-07-24T08:42:54;96200.69;;;19.17;94.28
70968;BME280;58629;48.808;8.820;2023-07-24T08:45:20;96210.47;;;19.20;97.31
70968;BME280;58629;48.808;8.820;2023-07-24T08:47:47;96217.06;;;19.24;96.75
70968;BME280;58629;48.808;8.820;2023-07-24T08:50:13;96220.75;;;19.27;97.24
70968;BME280;58629;48.808;8.820;2023-07-24T08:52:40;96230.72;;;19.21;96.36
70968;BME280;58629;48.808;8.820;2023-07-24T08:55:08;96240.97;;;19.22;92.76
70968;BME280;58629;48.808;8.820;2023-07-24T08:57:34;96252.97;;;19.32;94.85
70968;BME280;58629;48.808;8.820;2023-07-24T08:59:59;96254.22;;;19.42;94.21
70968;BME280;58629;48.808;8.820;2023-07-24T09:02:30;96258.41;;;19.49;96.80
70968;BME280;58629;48.808;8.820;2023-07-24T09:04:55;96266.47;;;19.49;95.20
70968;BME280;58629;48.808;8.820;2023-07-24T09:07:20;96265.47;;;19.41;97.28
70968;BME280;58629;48.808;8.820;2023-07-24T09:09:47;96268.16;;;19.52;97.27
70968;BME280;58629;48.808;8.820;2023-07-24T09:12:15;96268.41;;;19.65;95.06
70968;BME280;58629;48.808;8.820;2023-07-24T09:14:40;96279.19;;;19.81;97.31
70968;BME280;58629;48.808;8.820;2023-07-24T09:17:10;96263.56;;;19.85;94.45
70968;BME280;58629;48.808;8.820;2023-07-24T09:19:36;96266.97;;;20.03;93.83
70968;BME280;58629;48.808;8.820;2023-07-24T09:22:12;96266.50;;;20.15;93.75
70968;BME280;58629;48.808;8.820;2023-07-24T09:24:52;96278.50;;;20.14;95.80
70968;BME280;58629;48.808;8.820;2023-07-24T09:27:18;96268.50;;;20.20;94.00
70968;BME280;58629;48.808;8.820;2023-07-24T09:29:44;96261.38;;;20.17;93.57
70968;BME280;58629;48.808;8.820;2023-07-24T09:32:23;96252.13;;;20.24;93.38
70968;BME280;58629;48.808;8.820;2023-07-24T09:34:49;96250.63;;;20.23;93.23
70968;BME280;58629;48.808;8.820;2023-07-24T09:37:31;96256.00;;;20.17;93.18
70968;BME280;58629;48.808;8.820;2023-07-24T09:39:56;96248.94;;;20.20;92.02
70968;BME280;58629;48.808;8.820;2023-07-24T09:42:31;96253.31;;;20.23;91.82
70968;BME280;58629;48.808;8.820;2023-07-24T09:44:57;96266.00;;;20.17;91.94
70968;BME280;58629;48.808;8.820;2023-07-24T09:47:23;96280.94;;;20.12;94.43
70968;BME280;58629;48.808;8.820;2023-07-24T09:49:48;96274.81;;;20.06;94.43
70968;BME280;58629;48.808;8.820;2023-07-24T09:52:16;96281.41;;;20.11;92.89
70968;BME280;58629;48.808;8.820;2023-07-24T09:54:52;96295.59;;;20.11;92.15
70968;BME280;58629;48.808;8.820;2023-07-24T09:57:19;96300.47;;;20.02;96.53
70968;BME280;58629;48.808;8.820;2023-07-24T09:59:46;96306.34;;;20.06;93.37
70968;BME280;58629;48.808;8.820;2023-07-24T10:02:12;96310.72;;;20.03;94.01
70968;BME280;58629;48.808;8.820;2023-07-24T10:04:38;96310.47;;;20.01;93.44
70968;BME280;58629;48.808;8.820;2023-07-24T10:07:06;96306.81;;;19.99;94.41
70968;BME280;58629;48.808;8.820;2023-07-24T10:09:33;96316.84;;;19.93;95.47
70968;BME280;58629;48.808;8.820;2023-07-24T10:11:59;96319.50;;;19.87;94.45
70968;BME280;58629;48.808;8.820;2023-07-24T10:14:26;96319.25;;;19.85;94.10
70968;BME280;58629;48.808;8.820;2023-07-24T10:16:51;96320.44;;;19.67;95.55
70968;BME280;58629;48.808;8.820;2023-07-24T10:19:21;96311.88;;;19.63;95.31
70968;BME280;58629;48.808;8.820;2023-07-24T10:21:47;96316.06;;;19.64;94.74
70968;BME280;58629;48.808;8.820;2023-07-24T10:24:16;96315.06;;;19.56;97.20
70968;BME280;58629;48.808;8.820;2023-07-24T10:26:42;96325.06;;;19.56;97.03
70968;BME280;58629;48.808;8.820;2023-07-24T10:29:09;96316.50;;;19.57;95.11
70968;BME280;58629;48.808;8.820;2023-07-24T10:31:35;96316.25;;;19.55;95.40
70968;BME280;58629;48.808;8.820;2023-07-24T10:34:05;96313.09;;;19.57;96.51
70968;BME280;58629;48.808;8.820;2023-07-24T10:36:34;96306.50;;;19.52;96.36
70968;BME280;58629;48.808;8.820;2023-07-24T10:38:59;96310.38;;;19.51;95.55
70968;BME280;58629;48.808;8.820;2023-07-24T10:41:37;96328.41;;;19.40;99.22
70968;BME280;58629;48.808;8.820;2023-07-24T10:44:03;96335.97;;;19.41;97.60
70968;BME280;58629;48.808;8.820;2023-07-24T10:46:36;96335.19;;;19.30;98.10
70968;BME280;58629;48.808;8.820;2023-07-24T10:49:02;96328.09;;;19.27;96.79
70968;BME280;58629;48.808;8.820;2023-07-24T10:51:29;96328.09;;;19.21;97.84
70968;BME280;58629;48.808;8.820;2023-07-24T10:53:54;96314.94;;;19.23;96.89
70968;BME280;58629;48.808;8.820;2023-07-24T10:56:20;96305.16;;;19.26;96.94
70968;BME280;58629;48.808;8.820;2023-07-24T10:58:45;96294.66;;;19.28;95.67
70968;BME280;58629;48.808;8.820;2023-07-24T11:01:10;96278.03;;;19.18;97.84
70968;BME280;58629;48.808;8.820;2023-07-24T11:03:37;96240.94;;;19.11;98.41
70968;BME280;58629;48.808;8.820;2023-07-24T11:06:03;96257.00;;;19.05;96.20
70968;BME280;58629;48.808;8.820;2023-07-24T11:08:29;96276.94;;;18.88;98.63
70968;BME280;58629;48.808;8.820;2023-07-24T11:10:57;96262.22;;;18.72;97.47
70968;BME280;58629;48.808;8.820;2023-07-24T11:13:27;96247.88;;;18.75;98.25
70968;BME280;58629;48.808;8.820;2023-07-24T11:15:54;96237.81;;;18.65;97.93
70968;BME280;58629;48.808;8.820;2023-07-24T11:18:20;96218.38;;;18.75;97.74
70968;BME280;58629;48.808;8.820;2023-07-24T11:20:53;96198.88;;;18.80;98.10
70968;BME280;58629;48.808;8.820;2023-07-24T11:23:19;96182.03;;;18.80;97.71
70968;BME280;58629;48.808;8.820;2023-07-24T11:25:46;96157.44;;;18.87;96.54
70968;BME280;58629;48.808;8.820;2023-07-24T11:28:12;96158.22;;;18.98;95.86
70968;BME280;58629;48.808;8.820;2023-07-24T11:30:38;96189.72;;;19.20;95.02
70968;BME280;58629;48.808;8.820;2023-07-24T11:33:10;96207.34;;;19.43;94.83
70968;BME280;58629;48.808;8.820;2023-07-24T11:35:36;96194.44;;;19.64;95.15
70968;BME280;58629;48.808;8.820;2023-07-24T11:38:03;96198.59;;;19.81;94.45
70968;BME280;58629;48.808;8.820;2023-07-24T11:40:40;96214.25;;;19.88;93.32
70968;BME280;58629;48.808;8.820;2023-07-24T11:43:18;96208.84;;;19.83;90.54
70968;BME280;58629;48.808;8.820;2023-07-24T11:45:44;96211.56;;;19.94;90.71
70968;BME280;58629;48.808;8.820;2023-07-24T11:48:11;96218.13;;;19.93;91.84
70968;BME280;58629;48.808;8.820;2023-07-24T11:50:46;96219.59;;;19.77;92.92
70968;BME280;58629;48.808;8.820;2023-07-24T11:53:28;96234.72;;;19.75;92.62
70968;BME280;58629;48.808;8.820;2023-07-24T11:55:57;96240.34;;;19.71;92.64
70968;BME280;58629;48.808;8.820;2023-07-24T11:58:25;96252.56;;;19.61;93.57
70968;BME280;58629;48.808;8.820;2023-07-24T12:00:51;96261.59;;;19.58;97.23
70968;BME280;58629;48.808;8.820;2023-07-24T12:03:26;96246.94;;;19.59;96.36
70968;BME280;58629;48.808;8.820;2023-07-24T12:05:52;96249.13;;;19.50;97.51
70968;BME280;58629;48.808;8.820;2023-07-24T12:08:20;96252.06;;;19.52;91.65
70968;BME280;58629;48.808;8.820;2023-07-24T12:10:48;96259.84;;;19.50;92.94
70968;BME280;58629;48.808;8.820;2023-07-24T12:13:14;96251.06;;;19.49;93.25
70968;BME280;58629;48.808;8.820;2023-07-24T12:15:39;96252.50;;;19.39;93.81
70968;BME280;58629;48.808;8.820;2023-07-24T12:18:05;96256.38;;;19.27;94.71
70968;BME280;58629;48.808;8.820;2023-07-24T12:20:31;96264.44;;;19.27;93.94
70968;BME280;58629;48.808;8.820;2023-07-24T12:22:56;96261.44;;;19.20;95.33
70968;BME280;58629;48.808;8.820;2023-07-24T12:25:22;96250.47;;;19.18;94.93
70968;BME280;58629;48.808;8.820;2023-07-24T12:27:48;96238.03;;;19.20;94.66
70968;BME280;58629;48.808;8.820;2023-07-24T12:30:14;96242.94;;;19.27;94.83
70968;BME280;58629;48.808;8.820;2023-07-24T12:32:39;96254.88;;;19.21;94.64
70968;BME280;58629;48.808;8.820;2023-07-24T12:35:05;96246.84;;;19.26;93.70
70968;BME280;58629;48.808;8.820;2023-07-24T12:37:31;96236.84;;;19.32;94.00
70968;BME280;58629;48.808;8.820;2023-07-24T12:39:56;96231.53;;;19.38;94.10
70968;BME280;58629;48.808;8.820;2023-07-24T12:42:22;96233.25;;;19.41;95.70
70968;BME280;58629;48.808;8.820;2023-07-24T12:44:48;96223.72;;;19.45;96.66
70968;BME280;58629;48.808;8.820;2023-07-24T12:47:13;96215.66;;;19.45;97.36
70968;BME280;58629;48.808;8.820;2023-07-24T12:49:39;96217.38;;;19.54;95.74
70968;BME280;58629;48.808;8.820;2023-07-24T12:52:05;96202.00;;;19.54;96.17